sensor_id;sensor_type;location;lat;lon;timestamp;temperature;humidity
21115;DHT22;10715;48.546;9.896;2023-06-24T00:02:19;13.90;99.90
21115;DHT22;10715;48.546;9.896;2023-06-24T00:04:46;13.90;99.90
21115;DHT22;10715;48.546;9.896;2023-06-24T00:07:11;13.90;99.90
21115;DHT22;10715;48.546;9.896;2023-06-24T00:09:37;13.90;99.90
21115;DHT22;10715;48.546;9.896;2023-06-24T00:12:03;13.90;99.90
21115;DHT22;10715;48.546;9.896;2023-06-24T00:14:29;13.90;99.90
21115;DHT22;10715;48.546;9.896;2023-06-24T00:16:55;14.00;99.90
21115;DHT22;10715;48.546;9.896;2023-06-24T00:19:23;13.90;99.90
21115;DHT22;10715;48.546;9.896;2023-06-24T00:21:50;14.00;99.90
21115;DHT22;10715;48.546;9.896;2023-06-24T00:24:22;13.90;99.90
21115;DHT22;10715;48.546;9.896;2023-06-24T00:26:54;13.90;99.90
21115;DHT22;10715;48.546;9.896;2023-06-24T00:29:20;14.00;99.90
21115;DHT22;10715;48.546;9.896;2023-06-24T00:31:46;14.00;99.90
21115;DHT22;10715;48.546;9.896;2023-06-24T00:34:12;14.00;99.90
21115;DHT22;10715;48.546;9.896;2023-06-24T00:36:37;14.00;99.90
21115;DHT22;10715;48.546;9.896;2023-06-24T00:39:04;14.00;99.90
21115;DHT22;10715;48.546;9.896;2023-06-24T00:41:34;14.00;99.90
21115;DHT22;10715;48.546;9.896;2023-06-24T00:44:00;14.00;99.90
21115;DHT22;10715;48.546;9.896;2023-06-24T00:46:27;14.00;99.90
21115;DHT22;10715;48.546;9.896;2023-06-24T00:48:55;14.00;99.90
21115;DHT22;10715;48.546;9.896;2023-06-24T00:51:21;14.00;99.90
21115;DHT22;10715;48.546;9.896;2023-06-24T00:53:52;14.00;99.90
21115;DHT22;10715;48.546;9.896;2023-06-24T00:56:21;14.00;99.90
21115;DHT22;10715;48.546;9.896;2023-06-24T00:58:47;14.00;99.90
21115;DHT22;10715;48.546;9.896;2023-06-24T01:01:15;14.00;99.90
21115;DHT22;10715;48.546;9.896;2023-06-24T01:03:41;14.00;99.90
21115;DHT22;10715;48.546;9.896;2023-06-24T01:06:08;14.00;99.90
21115;DHT22;10715;48.546;9.896;2023-06-24T01:08:35;14.00;99.90
21115;DHT22;10715;48.546;9.896;2023-06-24T01:11:01;13.90;99.90
21115;DHT22;10715;48.546;9.896;2023-06-24T01:13:27;13.90;99.90
21115;DHT22;10715;48.546;9.896;2023-06-24T01:15:52;14.00;99.90
21115;DHT22;10715;48.546;9.896;2023-06-24T01:20:59;13.90;99.90
21115;DHT22;10715;48.546;9.896;2023-06-24T01:29:47;13.90;99.90
21115;DHT22;10715;48.546;9.896;2023-06-24T01:32:44;13.90;99.90
21115;DHT22;10715;48.546;9.896;2023-06-24T01:35:20;13.90;99.90
21115;DHT22;10715;48.546;9.896;2023-06-24T01:37:50;13.90;99.90
21115;DHT22;10715;48.546;9.896;2023-06-24T01:40:27;13.90;99.90
21115;DHT22;10715;48.546;9.896;2023-06-24T01:42:56;13.90;99.90
21115;DHT22;10715;48.546;9.896;2023-06-24T01:45:29;13.80;99.90
21115;DHT22;10715;48.546;9.896;2023-06-24T01:48:02;13.80;99.90
21115;DHT22;10715;48.546;9.896;2023-06-24T01:50:32;13.80;99.90
21115;DHT22;10715;48.546;9.896;2023-06-24T01:52:59;13.80;99.90
21115;DHT22;10715;48.546;9.896;2023-06-24T01:55:27;13.80;99.90
21115;DHT22;10715;48.546;9.896;2023-06-24T01:57:55;13.80;99.90
21115;DHT22;10715;48.546;9.896;2023-06-24T02:00:23;13.80;99.90
21115;DHT22;10715;48.546;9.896;2023-06-24T02:02:50;13.80;99.90
21115;DHT22;10715;48.546;9.896;2023-06-24T02:05:17;13.80;99.90
21115;DHT22;10715;48.546;9.896;2023-06-24T02:07:45;13.70;99.90
21115;DHT22;10715;48.546;9.896;2023-06-24T02:10:12;13.70;99.90
21115;DHT22;10715;48.546;9.896;2023-06-24T02:12:39;13.70;99.90
21115;DHT22;10715;48.546;9.896;2023-06-24T02:15:06;13.70;99.90
21115;DHT22;10715;48.546;9.896;2023-06-24T02:17:34;13.60;99.90
21115;DHT22;10715;48.546;9.896;2023-06-24T02:20:01;13.60;99.90
21115;DHT22;10715;48.546;9.896;2023-06-24T02:22:29;13.60;99.90
21115;DHT22;10715;48.546;9.896;2023-06-24T02:24:55;13.50;99.90
21115;DHT22;10715;48.546;9.896;2023-06-24T02:27:22;13.50;99.90
21115;DHT22;10715;48.546;9.896;2023-06-24T02:29:48;13.50;99.90
21115;DHT22;10715;48.546;9.896;2023-06-24T02:32:15;13.40;99.90
21115;DHT22;10715;48.546;9.896;2023-06-24T02:34:40;13.40;99.90
21115;DHT22;10715;48.546;9.896;2023-06-24T02:37:06;13.40;99.90
21115;DHT22;10715;48.546;9.896;2023-06-24T02:39:32;13.40;99.90
21115;DHT22;10715;48.546;9.896;2023-06-24T02:41:58;13.30;99.90
21115;DHT22;10715;48.546;9.896;2023-06-24T02:44:23;13.30;99.90
21115;DHT22;10715;48.546;9.896;2023-06-24T02:46:49;13.30;99.90
21115;DHT22;10715;48.546;9.896;2023-06-24T02:49:17;13.20;99.90
21115;DHT22;10715;48.546;9.896;2023-06-24T02:51:44;13.20;99.90
21115;DHT22;10715;48.546;9.896;2023-06-24T02:54:10;13.20;99.90
21115;DHT22;10715;48.546;9.896;2023-06-24T02:56:38;13.10;99.90
21115;DHT22;10715;48.546;9.896;2023-06-24T02:59:07;13.00;99.90
21115;DHT22;10715;48.546;9.896;2023-06-24T03:01:35;13.00;99.90
21115;DHT22;10715;48.546;9.896;2023-06-24T03:04:05;12.90;99.90
21115;DHT22;10715;48.546;9.896;2023-06-24T03:06:32;12.90;99.90
21115;DHT22;10715;48.546;9.896;2023-06-24T03:08:58;12.90;99.90
21115;DHT22;10715;48.546;9.896;2023-06-24T03:11:25;12.90;99.90
21115;DHT22;10715;48.546;9.896;2023-06-24T03:13:51;12.80;99.90
21115;DHT22;10715;48.546;9.896;2023-06-24T03:16:17;12.70;99.90
21115;DHT22;10715;48.546;9.896;2023-06-24T03:18:42;12.70;99.90
21115;DHT22;10715;48.546;9.896;2023-06-24T03:21:09;12.70;99.90
21115;DHT22;10715;48.546;9.896;2023-06-24T03:23:35;12.60;99.90
21115;DHT22;10715;48.546;9.896;2023-06-24T03:26:01;12.60;99.90
21115;DHT22;10715;48.546;9.896;2023-06-24T03:28:29;12.50;99.90
21115;DHT22;10715;48.546;9.896;2023-06-24T03:30:56;12.50;99.90
21115;DHT22;10715;48.546;9.896;2023-06-24T03:33:22;12.50;99.90
21115;DHT22;10715;48.546;9.896;2023-06-24T03:35:50;12.50;99.90
21115;DHT22;10715;48.546;9.896;2023-06-24T03:38:15;12.40;99.90
21115;DHT22;10715;48.546;9.896;2023-06-24T03:40:41;12.40;99.90
21115;DHT22;10715;48.546;9.896;2023-06-24T03:43:07;12.40;99.90
21115;DHT22;10715;48.546;9.896;2023-06-24T03:45:32;12.40;99.90
21115;DHT22;10715;48.546;9.896;2023-06-24T03:47:59;12.30;99.90
21115;DHT22;10715;48.546;9.896;2023-06-24T03:50:25;12.30;99.90
21115;DHT22;10715;48.546;9.896;2023-06-24T03:52:51;12.30;99.90
21115;DHT22;10715;48.546;9.896;2023-06-24T03:55:16;12.30;99.90
21115;DHT22;10715;48.546;9.896;2023-06-24T03:57:42;12.20;99.90
21115;DHT22;10715;48.546;9.896;2023-06-24T04:00:08;12.20;99.90
21115;DHT22;10715;48.546;9.896;2023-06-24T04:02:39;12.20;99.90
21115;DHT22;10715;48.546;9.896;2023-06-24T04:05:05;12.20;99.90
21115;DHT22;10715;48.546;9.896;2023-06-24T04:07:32;12.20;99.90
21115;DHT22;10715;48.546;9.896;2023-06-24T04:09:57;12.20;99.90
21115;DHT22;10715;48.546;9.896;2023-06-24T04:12:24;12.20;99.90
21115;DHT22;10715;48.546;9.896;2023-06-24T04:14:50;12.20;99.90
21115;DHT22;10715;48.546;9.896;2023-06-24T04:17:15;12.20;99.90
21115;DHT22;10715;48.546;9.896;2023-06-24T04:19:41;12.20;99.90
21115;DHT22;10715;48.546;9.896;2023-06-24T04:22:07;12.20;99.90
21115;DHT22;10715;48.546;9.896;2023-06-24T04:24:33;12.20;99.90
21115;DHT22;10715;48.546;9.896;2023-06-24T04:26:59;12.20;99.90
21115;DHT22;10715;48.546;9.896;2023-06-24T04:29:24;12.20;99.90
21115;DHT22;10715;48.546;9.896;2023-06-24T04:31:50;12.20;99.90
21115;DHT22;10715;48.546;9.896;2023-06-24T04:34:16;12.20;99.90
21115;DHT22;10715;48.546;9.896;2023-06-24T04:36:42;12.30;99.90
21115;DHT22;10715;48.546;9.896;2023-06-24T04:39:07;12.30;99.90
21115;DHT22;10715;48.546;9.896;2023-06-24T04:41:33;12.30;99.90
21115;DHT22;10715;48.546;9.896;2023-06-24T04:43:59;12.30;99.90
21115;DHT22;10715;48.546;9.896;2023-06-24T04:46:25;12.30;99.90
21115;DHT22;10715;48.546;9.896;2023-06-24T04:48:51;12.40;99.90
21115;DHT22;10715;48.546;9.896;2023-06-24T04:51:16;12.40;99.90
21115;DHT22;10715;48.546;9.896;2023-06-24T04:53:42;12.40;99.90
21115;DHT22;10715;48.546;9.896;2023-06-24T04:56:08;12.40;99.90
21115;DHT22;10715;48.546;9.896;2023-06-24T04:58:34;12.50;99.90
21115;DHT22;10715;48.546;9.896;2023-06-24T05:00:59;12.50;99.90
21115;DHT22;10715;48.546;9.896;2023-06-24T05:03:25;12.60;99.90
21115;DHT22;10715;48.546;9.896;2023-06-24T05:05:51;12.70;99.90
21115;DHT22;10715;48.546;9.896;2023-06-24T05:08:16;12.70;99.90
21115;DHT22;10715;48.546;9.896;2023-06-24T05:10:42;12.80;99.90
21115;DHT22;10715;48.546;9.896;2023-06-24T05:13:08;12.80;99.90
21115;DHT22;10715;48.546;9.896;2023-06-24T05:15:33;12.90;99.90
21115;DHT22;10715;48.546;9.896;2023-06-24T05:17:59;13.00;99.90
21115;DHT22;10715;48.546;9.896;2023-06-24T05:20:25;13.00;99.90
21115;DHT22;10715;48.546;9.896;2023-06-24T05:22:50;13.10;99.90
21115;DHT22;10715;48.546;9.896;2023-06-24T05:25:16;13.20;99.90
21115;DHT22;10715;48.546;9.896;2023-06-24T05:27:42;13.20;99.90
21115;DHT22;10715;48.546;9.896;2023-06-24T05:30:10;13.40;99.90
21115;DHT22;10715;48.546;9.896;2023-06-24T05:32:36;13.50;99.90
21115;DHT22;10715;48.546;9.896;2023-06-24T05:35:01;13.50;99.90
21115;DHT22;10715;48.546;9.896;2023-06-24T05:37:27;13.60;99.90
21115;DHT22;10715;48.546;9.896;2023-06-24T05:39:53;13.70;99.90
21115;DHT22;10715;48.546;9.896;2023-06-24T05:42:19;13.80;99.90
21115;DHT22;10715;48.546;9.896;2023-06-24T05:44:45;13.90;99.90
21115;DHT22;10715;48.546;9.896;2023-06-24T05:47:10;14.00;99.90
21115;DHT22;10715;48.546;9.896;2023-06-24T05:49:36;14.10;99.90
21115;DHT22;10715;48.546;9.896;2023-06-24T05:52:02;14.10;99.90
21115;DHT22;10715;48.546;9.896;2023-06-24T05:54:27;14.30;99.90
21115;DHT22;10715;48.546;9.896;2023-06-24T05:56:53;14.50;99.90
21115;DHT22;10715;48.546;9.896;2023-06-24T05:59:19;14.80;99.90
21115;DHT22;10715;48.546;9.896;2023-06-24T06:01:45;15.10;99.90
21115;DHT22;10715;48.546;9.896;2023-06-24T06:04:10;15.30;99.90
21115;DHT22;10715;48.546;9.896;2023-06-24T06:06:36;15.50;99.90
21115;DHT22;10715;48.546;9.896;2023-06-24T06:09:02;15.70;99.90
21115;DHT22;10715;48.546;9.896;2023-06-24T06:11:28;15.90;99.90
21115;DHT22;10715;48.546;9.896;2023-06-24T06:13:53;16.10;99.90
21115;DHT22;10715;48.546;9.896;2023-06-24T06:16:19;16.30;99.90
21115;DHT22;10715;48.546;9.896;2023-06-24T06:18:45;16.50;99.90
21115;DHT22;10715;48.546;9.896;2023-06-24T06:21:10;16.70;99.90
21115;DHT22;10715;48.546;9.896;2023-06-24T06:23:36;16.90;99.90
21115;DHT22;10715;48.546;9.896;2023-06-24T06:26:02;17.20;99.90
21115;DHT22;10715;48.546;9.896;2023-06-24T06:28:28;17.40;99.90
21115;DHT22;10715;48.546;9.896;2023-06-24T06:30:53;17.60;99.90
21115;DHT22;10715;48.546;9.896;2023-06-24T06:33:19;17.80;99.90
21115;DHT22;10715;48.546;9.896;2023-06-24T06:35:45;18.00;99.90
21115;DHT22;10715;48.546;9.896;2023-06-24T06:38:11;18.40;99.90
21115;DHT22;10715;48.546;9.896;2023-06-24T06:40:36;18.70;99.90
21115;DHT22;10715;48.546;9.896;2023-06-24T06:43:02;19.10;99.90
21115;DHT22;10715;48.546;9.896;2023-06-24T06:45:28;19.40;99.90
21115;DHT22;10715;48.546;9.896;2023-06-24T06:47:53;19.50;99.90
21115;DHT22;10715;48.546;9.896;2023-06-24T06:50:19;19.50;99.90
21115;DHT22;10715;48.546;9.896;2023-06-24T06:52:45;19.60;99.90
21115;DHT22;10715;48.546;9.896;2023-06-24T06:55:10;19.60;99.90
21115;DHT22;10715;48.546;9.896;2023-06-24T06:57:36;19.70;99.90
21115;DHT22;10715;48.546;9.896;2023-06-24T07:00:03;19.90;99.90
21115;DHT22;10715;48.546;9.896;2023-06-24T07:02:29;19.90;99.90
21115;DHT22;10715;48.546;9.896;2023-06-24T07:04:55;19.90;99.90
21115;DHT22;10715;48.546;9.896;2023-06-24T07:07:20;19.90;99.90
21115;DHT22;10715;48.546;9.896;2023-06-24T07:09:46;20.00;99.90
21115;DHT22;10715;48.546;9.896;2023-06-24T07:12:13;19.90;99.90
21115;DHT22;10715;48.546;9.896;2023-06-24T07:14:39;19.90;99.90
21115;DHT22;10715;48.546;9.896;2023-06-24T07:17:05;19.90;99.90
21115;DHT22;10715;48.546;9.896;2023-06-24T07:19:30;19.90;99.90
21115;DHT22;10715;48.546;9.896;2023-06-24T07:21:56;19.80;99.90
21115;DHT22;10715;48.546;9.896;2023-06-24T07:24:22;19.80;99.90
21115;DHT22;10715;48.546;9.896;2023-06-24T07:26:47;20.00;99.90
21115;DHT22;10715;48.546;9.896;2023-06-24T07:29:13;20.00;99.90
21115;DHT22;10715;48.546;9.896;2023-06-24T07:31:39;19.90;99.90
21115;DHT22;10715;48.546;9.896;2023-06-24T07:34:05;19.90;99.90
21115;DHT22;10715;48.546;9.896;2023-06-24T07:36:31;20.00;99.90
21115;DHT22;10715;48.546;9.896;2023-06-24T07:38:56;20.10;99.90
21115;DHT22;10715;48.546;9.896;2023-06-24T07:41:22;20.20;99.90
21115;DHT22;10715;48.546;9.896;2023-06-24T07:43:48;20.30;99.90
21115;DHT22;10715;48.546;9.896;2023-06-24T07:46:14;20.50;99.90
21115;DHT22;10715;48.546;9.896;2023-06-24T07:48:39;20.70;99.90
21115;DHT22;10715;48.546;9.896;2023-06-24T07:51:05;20.70;99.90
21115;DHT22;10715;48.546;9.896;2023-06-24T07:53:31;20.80;99.90
21115;DHT22;10715;48.546;9.896;2023-06-24T07:55:59;20.90;99.90
21115;DHT22;10715;48.546;9.896;2023-06-24T07:58:24;20.90;99.90
21115;DHT22;10715;48.546;9.896;2023-06-24T08:00:50;20.80;99.90
21115;DHT22;10715;48.546;9.896;2023-06-24T08:03:16;20.70;99.90
21115;DHT22;10715;48.546;9.896;2023-06-24T08:05:42;20.60;99.90
21115;DHT22;10715;48.546;9.896;2023-06-24T08:08:08;20.70;99.90
21115;DHT22;10715;48.546;9.896;2023-06-24T08:10:34;21.00;99.90
21115;DHT22;10715;48.546;9.896;2023-06-24T08:12:59;21.20;99.90
21115;DHT22;10715;48.546;9.896;2023-06-24T08:15:25;21.30;99.90
21115;DHT22;10715;48.546;9.896;2023-06-24T08:17:54;21.20;99.90
21115;DHT22;10715;48.546;9.896;2023-06-24T08:20:21;21.30;99.90
21115;DHT22;10715;48.546;9.896;2023-06-24T08:22:47;21.40;99.90
21115;DHT22;10715;48.546;9.896;2023-06-24T08:25:13;21.40;99.90
21115;DHT22;10715;48.546;9.896;2023-06-24T08:27:38;21.50;99.90
21115;DHT22;10715;48.546;9.896;2023-06-24T08:30:05;21.50;99.90
21115;DHT22;10715;48.546;9.896;2023-06-24T08:32:32;21.40;99.90
21115;DHT22;10715;48.546;9.896;2023-06-24T08:34:57;21.60;99.90
21115;DHT22;10715;48.546;9.896;2023-06-24T08:37:23;21.80;99.90
21115;DHT22;10715;48.546;9.896;2023-06-24T08:39:49;21.90;99.90
21115;DHT22;10715;48.546;9.896;2023-06-24T08:42:14;22.00;99.90
21115;DHT22;10715;48.546;9.896;2023-06-24T08:44:43;22.10;99.90
21115;DHT22;10715;48.546;9.896;2023-06-24T08:47:09;22.10;99.90
21115;DHT22;10715;48.546;9.896;2023-06-24T08:49:39;22.00;99.90
21115;DHT22;10715;48.546;9.896;2023-06-24T08:52:13;21.90;99.90
21115;DHT22;10715;48.546;9.896;2023-06-24T08:54:41;21.90;99.90
21115;DHT22;10715;48.546;9.896;2023-06-24T08:57:06;21.90;99.90
21115;DHT22;10715;48.546;9.896;2023-06-24T08:59:34;22.00;99.90
21115;DHT22;10715;48.546;9.896;2023-06-24T09:02:01;22.10;99.90
21115;DHT22;10715;48.546;9.896;2023-06-24T09:04:26;22.00;99.90
21115;DHT22;10715;48.546;9.896;2023-06-24T09:06:52;21.90;99.90
21115;DHT22;10715;48.546;9.896;2023-06-24T09:09:22;21.90;99.90
21115;DHT22;10715;48.546;9.896;2023-06-24T09:11:59;21.90;99.90
21115;DHT22;10715;48.546;9.896;2023-06-24T09:14:29;21.80;99.90
21115;DHT22;10715;48.546;9.896;2023-06-24T09:17:00;21.90;99.90
21115;DHT22;10715;48.546;9.896;2023-06-24T09:19:32;21.90;99.90
21115;DHT22;10715;48.546;9.896;2023-06-24T09:22:06;22.00;99.90
21115;DHT22;10715;48.546;9.896;2023-06-24T09:24:33;21.90;99.90
21115;DHT22;10715;48.546;9.896;2023-06-24T09:26:59;21.90;99.90
21115;DHT22;10715;48.546;9.896;2023-06-24T09:29:32;21.90;99.90
21115;DHT22;10715;48.546;9.896;2023-06-24T09:31:58;21.80;99.90
21115;DHT22;10715;48.546;9.896;2023-06-24T09:34:26;21.80;99.90
21115;DHT22;10715;48.546;9.896;2023-06-24T09:36:57;21.80;99.90
21115;DHT22;10715;48.546;9.896;2023-06-24T09:39:24;21.90;99.90
21115;DHT22;10715;48.546;9.896;2023-06-24T09:42:00;21.90;99.90
21115;DHT22;10715;48.546;9.896;2023-06-24T09:44:27;21.80;99.90
21115;DHT22;10715;48.546;9.896;2023-06-24T09:46:53;21.80;99.90
21115;DHT22;10715;48.546;9.896;2023-06-24T09:49:19;21.80;99.90
21115;DHT22;10715;48.546;9.896;2023-06-24T09:51:47;21.80;99.90
21115;DHT22;10715;48.546;9.896;2023-06-24T09:54:15;21.70;99.90
21115;DHT22;10715;48.546;9.896;2023-06-24T09:56:48;21.70;99.90
21115;DHT22;10715;48.546;9.896;2023-06-24T09:59:15;21.70;99.90
21115;DHT22;10715;48.546;9.896;2023-06-24T10:01:44;21.60;99.90
21115;DHT22;10715;48.546;9.896;2023-06-24T10:04:16;21.60;99.90
21115;DHT22;10715;48.546;9.896;2023-06-24T10:06:43;21.50;99.90
21115;DHT22;10715;48.546;9.896;2023-06-24T10:09:09;21.50;99.90
21115;DHT22;10715;48.546;9.896;2023-06-24T10:11:36;21.50;99.90
21115;DHT22;10715;48.546;9.896;2023-06-24T10:14:02;21.50;99.90
21115;DHT22;10715;48.546;9.896;2023-06-24T10:16:28;21.50;99.90
21115;DHT22;10715;48.546;9.896;2023-06-24T10:19:00;21.60;99.90
21115;DHT22;10715;48.546;9.896;2023-06-24T10:21:46;21.60;99.90
21115;DHT22;10715;48.546;9.896;2023-06-24T10:24:13;21.70;99.90
21115;DHT22;10715;48.546;9.896;2023-06-24T10:26:40;21.80;99.90
21115;DHT22;10715;48.546;9.896;2023-06-24T10:31:51;21.90;99.90
21115;DHT22;10715;48.546;9.896;2023-06-24T10:34:27;21.80;99.90
21115;DHT22;10715;48.546;9.896;2023-06-24T10:37:18;21.80;99.90
21115;DHT22;10715;48.546;9.896;2023-06-24T10:39:51;21.90;99.90
21115;DHT22;10715;48.546;9.896;2023-06-24T10:42:38;22.00;99.90
21115;DHT22;10715;48.546;9.896;2023-06-24T10:47:40;22.20;99.90
21115;DHT22;10715;48.546;9.896;2023-06-24T10:50:08;22.20;99.90
21115;DHT22;10715;48.546;9.896;2023-06-24T10:52:38;22.30;99.90
21115;DHT22;10715;48.546;9.896;2023-06-24T10:55:05;22.20;99.90
21115;DHT22;10715;48.546;9.896;2023-06-24T10:57:32;22.20;99.90
21115;DHT22;10715;48.546;9.896;2023-06-24T10:59:58;22.20;99.90
21115;DHT22;10715;48.546;9.896;2023-06-24T11:02:25;22.20;99.90
21115;DHT22;10715;48.546;9.896;2023-06-24T11:04:52;22.20;99.90
21115;DHT22;10715;48.546;9.896;2023-06-24T11:07:20;22.20;99.90
21115;DHT22;10715;48.546;9.896;2023-06-24T11:09:53;22.20;99.90
21115;DHT22;10715;48.546;9.896;2023-06-24T11:12:24;22.20;99.90
21115;DHT22;10715;48.546;9.896;2023-06-24T11:14:51;22.30;99.90
21115;DHT22;10715;48.546;9.896;2023-06-24T11:17:19;22.20;99.90
21115;DHT22;10715;48.546;9.896;2023-06-24T11:19:45;22.20;99.90
21115;DHT22;10715;48.546;9.896;2023-06-24T11:22:11;22.20;99.90
21115;DHT22;10715;48.546;9.896;2023-06-24T11:24:37;22.20;99.90
21115;DHT22;10715;48.546;9.896;2023-06-24T11:27:05;22.20;99.90
21115;DHT22;10715;48.546;9.896;2023-06-24T11:29:32;22.30;99.90
21115;DHT22;10715;48.546;9.896;2023-06-24T11:31:58;22.30;99.90
21115;DHT22;10715;48.546;9.896;2023-06-24T11:34:24;22.30;99.90
21115;DHT22;10715;48.546;9.896;2023-06-24T11:36:51;22.30;99.90
21115;DHT22;10715;48.546;9.896;2023-06-24T11:39:24;22.20;99.90
21115;DHT22;10715;48.546;9.896;2023-06-24T11:41:51;22.30;99.90
21115;DHT22;10715;48.546;9.896;2023-06-24T11:44:21;22.30;99.90
21115;DHT22;10715;48.546;9.896;2023-06-24T11:46:48;22.40;99.90
21115;DHT22;10715;48.546;9.896;2023-06-24T11:49:14;22.40;99.90
21115;DHT22;10715;48.546;9.896;2023-06-24T11:51:50;22.40;99.90
21115;DHT22;10715;48.546;9.896;2023-06-24T11:54:20;22.40;99.90
21115;DHT22;10715;48.546;9.896;2023-06-24T11:56:50;22.50;99.90
21115;DHT22;10715;48.546;9.896;2023-06-24T11:59:23;22.50;99.90
21115;DHT22;10715;48.546;9.896;2023-06-24T12:01:58;22.50;99.90
21115;DHT22;10715;48.546;9.896;2023-06-24T12:04:31;22.50;99.90
21115;DHT22;10715;48.546;9.896;2023-06-24T12:06:58;22.40;99.90
21115;DHT22;10715;48.546;9.896;2023-06-24T12:09:24;22.50;99.90
21115;DHT22;10715;48.546;9.896;2023-06-24T12:11:50;22.40;99.90
21115;DHT22;10715;48.546;9.896;2023-06-24T12:14:16;22.50;99.90
21115;DHT22;10715;48.546;9.896;2023-06-24T12:16:42;22.40;99.90
21115;DHT22;10715;48.546;9.896;2023-06-24T12:19:08;22.40;99.90
21115;DHT22;10715;48.546;9.896;2023-06-24T12:21:35;22.40;99.90
21115;DHT22;10715;48.546;9.896;2023-06-24T12:24:01;22.40;99.90
21115;DHT22;10715;48.546;9.896;2023-06-24T12:26:27;22.50;99.90
21115;DHT22;10715;48.546;9.896;2023-06-24T12:28:56;22.50;99.90
21115;DHT22;10715;48.546;9.896;2023-06-24T12:31:22;22.50;99.90
21115;DHT22;10715;48.546;9.896;2023-06-24T12:33:48;22.60;99.90
21115;DHT22;10715;48.546;9.896;2023-06-24T12:36:14;22.60;99.90
21115;DHT22;10715;48.546;9.896;2023-06-24T12:38:40;22.60;99.90
21115;DHT22;10715;48.546;9.896;2023-06-24T12:41:05;22.70;99.90
21115;DHT22;10715;48.546;9.896;2023-06-24T12:43:32;22.80;99.90
21115;DHT22;10715;48.546;9.896;2023-06-24T12:45:58;22.80;99.90
21115;DHT22;10715;48.546;9.896;2023-06-24T12:48:24;22.80;99.90
21115;DHT22;10715;48.546;9.896;2023-06-24T12:50:50;22.90;99.90
21115;DHT22;10715;48.546;9.896;2023-06-24T12:53:19;22.90;99.90
21115;DHT22;10715;48.546;9.896;2023-06-24T12:55:45;22.90;99.90
21115;DHT22;10715;48.546;9.896;2023-06-24T12:58:13;23.00;99.90
21115;DHT22;10715;48.546;9.896;2023-06-24T13:00:38;23.00;99.90
21115;DHT22;10715;48.546;9.896;2023-06-24T13:03:04;22.90;99.90
21115;DHT22;10715;48.546;9.896;2023-06-24T13:05:30;22.90;99.90
21115;DHT22;10715;48.546;9.896;2023-06-24T13:07:56;22.90;99.90
21115;DHT22;10715;48.546;9.896;2023-06-24T13:10:21;22.80;99.90
21115;DHT22;10715;48.546;9.896;2023-06-24T13:12:47;22.80;99.90
21115;DHT22;10715;48.546;9.896;2023-06-24T13:15:13;22.70;99.90
21115;DHT22;10715;48.546;9.896;2023-06-24T13:17:39;22.70;99.90
21115;DHT22;10715;48.546;9.896;2023-06-24T13:20:05;22.70;99.90
21115;DHT22;10715;48.546;9.896;2023-06-24T13:22:31;22.70;99.90
21115;DHT22;10715;48.546;9.896;2023-06-24T13:24:57;22.70;99.90
21115;DHT22;10715;48.546;9.896;2023-06-24T13:27:22;22.70;99.90
21115;DHT22;10715;48.546;9.896;2023-06-24T13:29:48;22.80;99.90
21115;DHT22;10715;48.546;9.896;2023-06-24T13:32:14;22.80;99.90
21115;DHT22;10715;48.546;9.896;2023-06-24T13:34:40;22.90;99.90
21115;DHT22;10715;48.546;9.896;2023-06-24T13:37:06;22.90;99.90
21115;DHT22;10715;48.546;9.896;2023-06-24T13:39:32;23.00;99.90
21115;DHT22;10715;48.546;9.896;2023-06-24T13:41:57;23.00;99.90
21115;DHT22;10715;48.546;9.896;2023-06-24T13:44:23;23.10;99.90
21115;DHT22;10715;48.546;9.896;2023-06-24T13:46:49;23.20;99.90
21115;DHT22;10715;48.546;9.896;2023-06-24T13:49:19;23.20;99.90
21115;DHT22;10715;48.546;9.896;2023-06-24T13:51:45;23.20;99.90
21115;DHT22;10715;48.546;9.896;2023-06-24T13:54:11;23.20;99.70
21115;DHT22;10715;48.546;9.896;2023-06-24T13:56:37;23.20;99.50
21115;DHT22;10715;48.546;9.896;2023-06-24T13:59:03;23.20;99.90
21115;DHT22;10715;48.546;9.896;2023-06-24T14:01:28;23.20;99.80
21115;DHT22;10715;48.546;9.896;2023-06-24T14:03:55;23.10;99.90
21115;DHT22;10715;48.546;9.896;2023-06-24T14:06:22;23.10;99.90
21115;DHT22;10715;48.546;9.896;2023-06-24T14:08:52;23.10;99.90
21115;DHT22;10715;48.546;9.896;2023-06-24T14:11:18;23.00;99.90
21115;DHT22;10715;48.546;9.896;2023-06-24T14:13:44;23.00;99.90
21115;DHT22;10715;48.546;9.896;2023-06-24T14:16:10;23.00;99.90
21115;DHT22;10715;48.546;9.896;2023-06-24T14:18:37;23.00;99.90
21115;DHT22;10715;48.546;9.896;2023-06-24T14:21:04;23.00;99.90
21115;DHT22;10715;48.546;9.896;2023-06-24T14:23:31;23.10;99.90
21115;DHT22;10715;48.546;9.896;2023-06-24T14:25:57;23.10;99.10
21115;DHT22;10715;48.546;9.896;2023-06-24T14:28:24;23.20;99.90
21115;DHT22;10715;48.546;9.896;2023-06-24T14:30:50;23.20;99.20
21115;DHT22;10715;48.546;9.896;2023-06-24T14:33:16;23.20;99.90
21115;DHT22;10715;48.546;9.896;2023-06-24T14:35:42;23.20;99.90
21115;DHT22;10715;48.546;9.896;2023-06-24T14:38:07;23.30;99.20
21115;DHT22;10715;48.546;9.896;2023-06-24T14:40:33;23.30;99.90
21115;DHT22;10715;48.546;9.896;2023-06-24T14:42:59;23.40;99.30
21115;DHT22;10715;48.546;9.896;2023-06-24T14:45:26;23.50;99.20
21115;DHT22;10715;48.546;9.896;2023-06-24T14:47:51;23.50;99.20
21115;DHT22;10715;48.546;9.896;2023-06-24T14:50:17;23.50;98.90
21115;DHT22;10715;48.546;9.896;2023-06-24T14:52:43;23.50;98.60
21115;DHT22;10715;48.546;9.896;2023-06-24T14:55:09;23.50;99.10
21115;DHT22;10715;48.546;9.896;2023-06-24T14:57:35;23.40;98.60
21115;DHT22;10715;48.546;9.896;2023-06-24T15:00:02;23.50;98.10
21115;DHT22;10715;48.546;9.896;2023-06-24T15:02:28;23.50;97.80
21115;DHT22;10715;48.546;9.896;2023-06-24T15:04:55;23.40;97.30
21115;DHT22;10715;48.546;9.896;2023-06-24T15:07:20;23.40;97.20
21115;DHT22;10715;48.546;9.896;2023-06-24T15:09:46;23.50;97.30
21115;DHT22;10715;48.546;9.896;2023-06-24T15:12:12;23.50;98.60
21115;DHT22;10715;48.546;9.896;2023-06-24T15:14:38;23.50;97.80
21115;DHT22;10715;48.546;9.896;2023-06-24T15:17:04;23.50;97.30
21115;DHT22;10715;48.546;9.896;2023-06-24T15:19:29;23.50;98.10
21115;DHT22;10715;48.546;9.896;2023-06-24T15:21:55;23.50;98.30
21115;DHT22;10715;48.546;9.896;2023-06-24T15:24:21;23.50;98.40
21115;DHT22;10715;48.546;9.896;2023-06-24T15:26:47;23.50;98.10
21115;DHT22;10715;48.546;9.896;2023-06-24T15:29:12;23.60;98.70
21115;DHT22;10715;48.546;9.896;2023-06-24T15:31:38;23.70;98.70
21115;DHT22;10715;48.546;9.896;2023-06-24T15:34:04;23.70;99.20
21115;DHT22;10715;48.546;9.896;2023-06-24T15:36:30;23.80;98.40
21115;DHT22;10715;48.546;9.896;2023-06-24T15:38:56;23.80;99.00
21115;DHT22;10715;48.546;9.896;2023-06-24T15:41:22;23.80;98.80
21115;DHT22;10715;48.546;9.896;2023-06-24T15:43:48;23.80;97.80